Thursday, September 18, 2014
13:48 UTC
  |  Log In   |  Register Free
Airport Search:

Durant Regional - Eaker Field Airport
(KDUA)

Durant Regional - Eaker Field Airport Diagram
No Airport Diagram Available

FAA data valid effective July 24, 2014 until September 18, 2014 (unless otherwise noted).

 
 
 
 
 
 
 
 
 
 
 
 
 
 

Current Aviation Weather for Durant Regional - Eaker Field Airport (KDUA)

The most recent METAR observation for KDUA was updated at: 1309
METAR Summary (Translated METAR)
KDUA
181255Z AUTO 00000KT 10SM CLR 20/18 A2992 RMK AO2
KGYI
181255Z AUTO 00000KT 10SM CLR 22/19 A2993 RMK AO2 T02160192
(19.5 nm SW from KDUA)
KAQR
181255Z AUTO 00000KT 10SM SCT080 18/18 A2994 RMK AO2 LTG DSNT N
(30 nm NE from KDUA)
TAF
No TAF information found within 50 nm of KDUA
  Airport Weather Conditions for KDUA

 Current Weather at DUA
68° F
Fair
North winds at 0.0 mph
DUA NOAA Radar

Pressure: 29.90 in
Humidity: 88%
Wind: Calm
Dew Point: 64.4°F
Visibility: 10.00 mi


Airport Weather Forecast for KDUA

Translated METAR and TAF for KDUA
Translated METAR for KDUA (1343 UTC 18 September 2014)
found at http://aviationweather.gov/adds/metars/
 
METAR text: KDUA 181335Z AUTO 09005KT 10SM SCT110 20/19 A2995 RMK AO2 LTG DSNT N
Conditions at: KDUA (DURANT , OK, US) observed 1335 UTC 18 September 2014
Temperature: 20.0°C (68°F)
Dewpoint: 19.0°C (66°F) [RH = 94%]
Pressure (altimeter): 29.95 inches Hg (1014.3 mb)
Winds: from the E (90 degrees) at 6 MPH (5 knots; 2.6 m/s)
Visibility: 10 or more miles (16+ km)
Ceiling: at least 12,000 feet AGL
Clouds: scattered clouds at 11000 feet AGL
Weather: automated observation with no human augmentation;
there may or may not be significant weather present at this time
Translated TAF for KDUA

There is no translated TAF available for this airport

Find All Airport Services Find A Hotel Find A Rental Car Find A Golf Course Find A Restaurant $100 Hamburger



FBO's on the Field
FBO Company Facility Photos Services Transportation Aviation Fuel Prices: Prices include tax
Catering Weather Repair Courtesy Rental Type 100LL JetA JetA+ MOGAS 8087
 
D/W Aviation

This FBO has not yet been rated
FS:Avfuel
Last Updated: Sep-09
Login to update fuel prices
SS:
Contact D/W AviationMore FBO Information
 
Add another FBO Facility Photos Catering Weather Repair Courtesy Rental Type 100LL JetA JetA+ MOGAS 8087
Services Transportation Aviation Fuel Prices: Prices include tax


model-print
model-print
model-print
model-print